AirNav   Everest Fuels
 
 1017 users online  

83LL Lindauer Airport
New Athens, Illinois, USA

GOING TO NEW ATHENS?


FAA INFORMATION EFFECTIVE 01 DECEMBER 2022

Location

FAA Identifier: 83LL
Lat/Long: 38-18-13.0000N 089-51-18.3660W
38-18.216667N 089-51.306100W
38.3036111,-89.8551017
(estimated)
Elevation: 437 ft. / 133 m (estimated)
Variation: 02E (1985)
From city: 1 mile SE of NEW ATHENS, IL
Time zone: UTC -6 (UTC -5 during Daylight Saving Time)
Zip code: 62264

Airport Operations

Airport use: Private use. Permission required prior to landing
Activation date: 05/1979
Control tower: no
ARTCC: KANSAS CITY CENTER
FSS: SAINT LOUIS FLIGHT SERVICE STATION
Attendance: UNATNDD
Wind indicator: yes
Segmented circle: no

Airport Communications

WX AWOS-3 at SAR (12 nm SE): 118.375 (618-443-3296)

Nearby radio navigation aids

VOR radial/distance  VOR name  Freq  Var
TOYr169/26.3TROY VORTAC116.0004E
ENLr254/33.5CENTRALIA VORTAC115.0004E

 
NDB name  Hdg/Dist  Freq  Var  ID
GOOEY210/11.838502WJD .--- -..

Airport Services

Runway Information

Runway 17/35

Dimensions: 1600 x 70 ft. / 488 x 21 m
Surface: turf
RUNWAY 17  RUNWAY 35
Traffic pattern: leftleft

Airport Ownership and Management from official FAA records

Ownership: Privately-owned
Owner: CHRISTOPHER J. LINDAUER
2717 STATE ROUTE 13, PO BOX 433
NEW ATHENS, IL 62264-0433
Phone 618-475-3881
Manager: CHRISTOPHER J, LINDAUER
2717 STATE ROUTE 13, PO BOX 433
NEW ATHENS, IL 62264-0433
Phone 618-475-3881

Airport Operational Statistics

Aircraft based on the field: 2
Single engine airplanes: 2
    

Additional Remarks

HIGH TREES IN SIDE TRANSITION, BOTH SIDES. IN CASE OF EASTERLY OR WESTERLY WINDS, PILOTS SHOULD USE CAUTION WHEN LANDING OR TAKING OFF, DUE TO WIND SHEAR.
FOR CD CTC ST LOUIS APCH AT 314-890-1018.

Instrument Procedures

There are no published instrument procedures at 83LL.

Some nearby airports with instrument procedures:

KSAR - Sparta Community Airport-Hunter Field (12 nm SE)
KBLV - Scott Air Force Base/MidAmerica Airport (15 nm N)
KCPS - St Louis Downtown Airport (21 nm NW)
KFES - Festus Memorial Airport (26 nm W)
KPCD - Perryville Regional Airport (26 nm S)
 
Loc | Ops | Rwys | IFR | FBO | Links
Com | Nav | Svcs | Stats | Notes
Area around 83LL (Lindauer Airport)
 
Road maps at: MapQuest Bing Google
 
Aerial photo
WARNING: Photo may not be current or correct
Aerial photo of 83LL (Lindauer Airport)
Photo by Curt Lindauer
Taken in 2005

Do you have a better or more recent aerial photo of Lindauer Airport that you would like to share? If so, please send us your photo.

 
Sectional chart

 
Airport distance calculator
Flying to Lindauer Airport? Find the distance to fly.

From to 83LL

Sunrise and sunset
Times for 04-Dec-2022
 Local
(UTC-6)
 Zulu
(UTC)
Morning civil twilight06:3212:32
Sunrise07:0113:01
Sunset16:3822:38
Evening civil twilight17:0723:07

Current date and time
Zulu (UTC)  05-Dec-2022 02:32:57
Local (UTC-6)  04-Dec-2022 20:32:57
 
METAR
KSAR 
12nm SE 
050215Z AUTO 15004KT 10SM CLR 00/M05 A3015 RMK AO2 T00001051
KBLV 
14nm N 
050155Z COR 15003KT 10SM BKN250 02/M06 A3016 RMK AO2A SLPNO ALSTG ESTMD RVRNO TSNO $ COR 0158
KCPS 
21nm NW 
050153Z 16006KT 10SM CLR 01/M05 A3013 RMK AO2 SLP205 T00111050
TAF
KBLV 
14nm N 
050000Z 0500/0606 VRB06KT 9999 BKN250 QNH2999INS BECMG 0509/0510 VRB06KT 9999 BKN020 OVC030 QNH2995INS BECMG 0512/0513 18009KT 9999 SCT020 BKN030 QNH2989INS BECMG 0517/0518 19010G15KT 9999 BKN030 QNH2985INS BECMG 0519/0520 20006KT 9999 BKN015 QNH2983INS BECMG 0600/0601 VRB06KT 9999 BKN005 QNH2991INS TX08/0521Z TNM02/0507Z
NOTAMs
Click for the latest NOTAMs
NOTAMs are issued by the DoD/FAA and will open in a separate window not controlled by AirNav.

 

 
 

Would you like to see your business listed on this page?

 If your business provides an interesting product or service to pilots, flight crews, aircraft, or users of the Lindauer Airport, you should consider listing it here.  To start the listing process, click on the button below
 
Add a business
 

Other Pages about Lindauer Airport

members.accessus.net/~lindauer
 
Update a link
 
Copyright © AirNav, LLC. All rights reserved. Privacy Policy  Contact